Terminal Aerodrome Forecast
Issued by NWS Norman, OK

Current Version | Previous Version | Text Only | Print | Product List | Glossary On
Versions: 1 2 3 4 5 6 7 8 9 10 11 12 13 14 15 16 17 18 19 20 21 22 23 24 25 26 27 28 29 30 31 32 33 34 35 36
000
FTUS44 KOUN 040540
TAFSPS
TAF
KSPS 040540Z 0406/0506 09010KT 5SM BR SCT020 BKN100
     FM040800 03012KT P6SM OVC025
      TEMPO 0408/0412 -RA OVC015
     FM041200 02014G27KT 4SM BR OVC009
      TEMPO 0412/0416 -RA
     FM041700 01024G30KT 2SM -FZRAPL BR OVC006
     FM042100 03019G27KT 2SM PL OVC005
     FM050300 03013KT P6SM SCT015 OVC050=

USA.gov is the U.S. government's official web portal to all federal, state and local government web resources and services.